createdAt,value
2022-11-09T07:37:41.162Z,99.90
2022-11-09T08:13:50.872Z,99.90
2022-11-09T08:18:44.392Z,99.90
2022-11-09T08:42:06.637Z,99.90
2022-11-09T08:47:00.097Z,99.90
2022-11-09T08:51:54.808Z,99.90
2022-11-09T08:56:48.367Z,99.90
2022-11-09T09:01:43.431Z,99.90
2022-11-09T09:06:37.834Z,99.90
2022-11-09T09:11:31.363Z,99.90
2022-11-09T09:16:24.862Z,99.90
2022-11-09T09:21:19.848Z,99.90
2022-11-09T09:26:13.544Z,99.90
2022-11-09T09:31:07.224Z,99.90
2022-11-09T09:36:01.336Z,99.90
2022-11-09T09:41:00.302Z,99.90
2022-11-09T09:45:55.144Z,99.90
2022-11-09T09:50:52.105Z,99.90
2022-11-09T09:55:51.890Z,99.90
2022-11-09T10:00:47.099Z,99.90
2022-11-09T10:05:49.413Z,99.90
2022-11-09T10:10:48.402Z,99.90
2022-11-09T10:15:50.882Z,99.90
2022-11-09T10:20:58.616Z,99.90
2022-11-09T10:26:04.890Z,99.90
2022-11-09T10:31:03.133Z,99.90
2022-11-09T10:36:07.832Z,99.90
2022-11-09T10:41:06.535Z,99.90
2022-11-09T10:46:21.575Z,99.90
2022-11-09T10:51:39.815Z,99.90
2022-11-09T10:57:10.030Z,99.90
2022-11-09T11:02:44.220Z,99.90
2022-11-09T11:07:56.496Z,99.90
2022-11-09T11:13:29.363Z,99.90
2022-11-09T11:18:47.082Z,99.90
2022-11-09T11:24:14.909Z,99.90
2022-11-09T11:29:48.463Z,99.90
2022-11-09T11:35:02.751Z,99.80
2022-11-09T11:40:21.647Z,98.70
2022-11-09T11:45:42.472Z,97.70
2022-11-09T11:51:02.818Z,97.10
2022-11-09T11:56:23.735Z,97.10
2022-11-09T12:01:52.821Z,97.40
2022-11-09T12:07:15.844Z,96.30
2022-11-09T12:12:37.278Z,94.80
2022-11-09T12:17:59.252Z,93.60
2022-11-09T12:23:26.091Z,92.60
2022-11-09T12:28:55.920Z,92.50
2022-11-09T12:34:16.383Z,92.20
2022-11-09T12:39:37.136Z,91.80
2022-11-09T12:45:04.744Z,91.90
2022-11-09T12:50:20.344Z,92.00
2022-11-09T12:55:42.477Z,91.30
2022-11-09T13:00:57.306Z,91.30
2022-11-09T13:06:19.200Z,90.60
2022-11-09T13:11:39.565Z,89.70
2022-11-09T13:16:52.438Z,87.70
2022-11-09T13:22:25.319Z,85.30
2022-11-09T13:27:51.903Z,87.00
2022-11-09T13:33:25.470Z,88.10
2022-11-09T13:38:38.491Z,89.10
2022-11-09T13:44:09.781Z,90.10
2022-11-09T13:49:46.084Z,87.30
2022-11-09T13:54:58.568Z,86.30
2022-11-09T14:00:19.920Z,87.00
2022-11-09T14:05:36.328Z,86.90
2022-11-09T14:11:11.594Z,87.30
2022-11-09T14:16:31.369Z,91.20
2022-11-09T14:21:48.021Z,93.50
2022-11-09T14:27:01.877Z,95.40
2022-11-09T14:32:30.330Z,96.50
2022-11-09T14:37:46.530Z,97.40
2022-11-09T14:43:02.455Z,98.20
2022-11-09T14:48:20.795Z,99.20
2022-11-09T14:53:37.903Z,99.90
2022-11-09T14:58:50.896Z,99.90
2022-11-09T15:04:11.845Z,99.90
2022-11-09T15:09:29.810Z,99.90
2022-11-09T15:14:42.784Z,99.90
2022-11-09T15:19:58.648Z,99.90
2022-11-09T15:25:31.353Z,99.90
2022-11-09T15:30:46.267Z,99.90
2022-11-09T15:36:04.573Z,99.90
2022-11-09T15:41:19.841Z,99.90
2022-11-09T15:46:37.891Z,99.90
2022-11-09T15:51:52.110Z,99.90
2022-11-09T15:57:05.366Z,99.90
2022-11-09T16:02:19.146Z,99.90
2022-11-09T16:07:33.029Z,99.90
2022-11-09T16:12:46.508Z,99.90
2022-11-09T16:17:59.079Z,99.90
2022-11-09T16:23:13.355Z,99.90
2022-11-09T16:28:26.126Z,99.90
2022-11-09T16:33:40.241Z,99.90
2022-11-09T16:38:57.311Z,99.90
2022-11-09T16:44:09.745Z,99.90
2022-11-09T16:49:22.113Z,99.90
